Terminal Aerodrome Forecast
Issued by NWS

Home | Current Version | Previous Version | Text Only | Print | Product List | Glossary Off
Versions: 1 2 3 4 5 6 7 8 9 10 11 12 13 14 15 16 17 18 19 20

000
FTUS43 KGRB 210540
TAFAUW
TAF
KAUW 210540Z 2106/2206 00000KT 1SM BR SCT005
      TEMPO 2106/2108 1/4SM FG VV002
     FM210800 01004KT 1/4SM FG VV002
      TEMPO 2111/2113 2SM BR SCT004
     FM211300 06004KT 2SM BR SCT020
     FM211700 08005KT P6SM SCT025 BKN040
     FM220100 11005KT P6SM SCT040=

USA.gov is the U.S. government's official web portal to all federal, state and local government web resources and services.